Main page
METAR-TAF:

METAR-TAF

Airports :

León, Spain

León Airport

latitude: 42-35N, longitude: 005-39W, elevation: 926 m

Current weather observation

The report was made 5 hours and 4 minutes ago, at 19:00 UTC
Calm wind
Temperature 12°C
Humidity 54%
Pressure 1024 hPa
Visibility 10 km or more
no clouds below 1500 m and no cumulonimbus

METAR: LELN 191900Z 00000KT CAVOK 12/03 Q1024

Time: 02:04 (00:04 UTC)

Forecast

The report was made 7 hours and 4 minutes ago, at 17:00 UTC
Forecast valid from 19 at 18 UTC to 20 at 03 UTC
Wind 5 kt from variable directions
Visibility 10 km or more
no clouds below 1500 m and no cumulonimbus

TAF: LELN 191700Z 1918/2003 VRB05KT CAVOK

Weather observations and forecasts of more than 4000 airports (METAR and TAF reports).

The available stations are represented by yellow and red dots on the map.

Hover mouse over dot to see the name of the station.

Then click to see weather observations and forecasts.

To change the map : click on the green buttons with a black cross to zoom in, on the green button with a dash to zoom out, or on the green arrows for adjacent maps.


METAR-TAF: